Time;durP1;ratioP1;P1;durP2;ratioP2;P2;SDS_P1;SDS_P2;PMS_P1;PMS_P2;Temp;Humidity;BMP_temperature;BMP_pressure;BME280_temperature;BME280_humidity;BME280_pressure;Samples;Min_cycle;Max_cycle;Signal;HPM_P1;HPM_P2
2021/11/23 00:00:27;;;;;;;55.63;28.13;;;;;;;7.66;71.64;94723.25;5132760;27;20345;-70
2021/11/23 00:02:54;;;;;;;55.55;28.52;;;;;;;7.66;71.42;94720.66;5113800;27;20515;-69
2021/11/23 00:05:19;;;;;;;47.55;25.25;;;;;;;7.70;71.65;94722.91;5114015;27;20031;-69
2021/11/23 00:07:45;;;;;;;50.85;26.98;;;;;;;7.69;71.82;94720.44;5130856;27;20519;-69
2021/11/23 00:10:10;;;;;;;49.80;26.52;;;;;;;7.73;71.58;94727.03;5113749;27;20488;-69
2021/11/23 00:12:36;;;;;;;47.03;26.33;;;;;;;7.74;71.72;94728.69;5130942;27;20020;-69
2021/11/23 00:15:01;;;;;;;49.90;27.30;;;;;;;7.73;71.77;94734.81;5113714;28;20039;-69
2021/11/23 00:17:27;;;;;;;46.42;25.70;;;;;;;7.66;71.96;94720.66;5130864;27;20047;-69
2021/11/23 00:19:52;;;;;;;45.97;25.17;;;;;;;7.72;71.88;94736.56;5131835;27;20485;-69
2021/11/23 00:22:18;;;;;;;49.95;27.33;;;;;;;7.63;72.40;94723.47;5131935;27;20413;-69
2021/11/23 00:24:43;;;;;;;44.70;24.10;;;;;;;7.71;72.06;94739.25;5130792;27;20503;-69
2021/11/23 00:27:09;;;;;;;47.83;26.10;;;;;;;7.70;72.06;94732.44;5131778;27;20485;-69
2021/11/23 00:29:34;;;;;;;48.90;26.38;;;;;;;7.63;72.18;94731.22;5131499;27;20055;-69
2021/11/23 00:32:00;;;;;;;50.75;25.65;;;;;;;7.63;73.91;94734.63;5131842;27;20056;-69
2021/11/23 00:34:26;;;;;;;39.35;22.13;;;;;;;7.61;73.53;94733.94;5130415;27;20035;-69
2021/11/23 00:36:52;;;;;;;50.10;24.63;;;;;;;7.68;73.57;94740.28;5113626;28;20028;-69
2021/11/23 00:39:17;;;;;;;52.60;27.63;;;;;;;7.70;73.78;94737.63;5130506;27;20054;-69
2021/11/23 00:41:49;;;;;;;52.05;25.48;;;;;;;7.72;73.75;94735.75;5130466;28;20027;-69
2021/11/23 00:44:18;;;;;;;44.78;23.63;;;;;;;7.74;73.89;94737.25;5114141;28;20062;-69
2021/11/23 00:46:44;;;;;;;53.35;25.88;;;;;;;7.75;73.79;94741.50;5130524;28;20507;-69
2021/11/23 00:49:10;;;;;;;44.55;23.55;;;;;;;7.78;73.60;94732.72;5096379;28;20024;-69
2021/11/23 00:51:35;;;;;;;45.28;21.55;;;;;;;7.79;73.55;94739.53;5113248;28;20053;-69
2021/11/23 00:54:01;;;;;;;39.20;22.92;;;;;;;7.77;73.29;94728.44;5130408;28;20028;-69
2021/11/23 00:56:26;;;;;;;40.00;21.35;;;;;;;7.71;73.30;94721.97;5131647;27;20080;-69
2021/11/23 00:58:52;;;;;;;46.22;22.42;;;;;;;7.74;73.20;94736.44;5131542;27;20057;-70
2021/11/23 01:01:17;;;;;;;47.08;24.85;;;;;;;7.71;73.73;94732.31;5130434;28;20028;-69
2021/11/23 01:03:42;;;;;;;40.58;22.40;;;;;;;7.73;73.73;94747.72;5113313;28;20027;-69
2021/11/23 01:06:08;;;;;;;39.60;22.67;;;;;;;7.57;73.75;94711.81;5131523;27;20028;-69
2021/11/23 01:08:38;;;;;;;40.47;23.13;;;;;;;7.71;73.89;94740.06;5113147;28;20031;-70
2021/11/23 01:11:04;;;;;;;60.97;33.37;;;;;;;7.71;73.62;94736.66;5130385;28;20031;-70
2021/11/23 01:13:30;;;;;;;76.85;40.95;;;;;;;7.69;74.07;94735.94;5096114;28;20118;-70
2021/11/23 01:15:55;;;;;;;68.45;36.10;;;;;;;7.69;73.91;94728.19;5130198;28;20035;-69
2021/11/23 01:18:21;;;;;;;66.78;36.60;;;;;;;7.66;74.45;94736.16;5130259;28;20089;-70
2021/11/23 01:20:46;;;;;;;62.42;34.10;;;;;;;7.63;74.53;94733.81;5113024;28;20031;-69
2021/11/23 01:23:11;;;;;;;65.32;35.95;;;;;;;7.63;74.25;94728.63;5112983;28;20031;-70
2021/11/23 01:25:37;;;;;;;58.67;33.13;;;;;;;7.65;74.10;94730.19;5130275;28;20035;-69
2021/11/23 01:28:02;;;;;;;75.95;38.95;;;;;;;7.65;74.19;94724.19;5130127;28;20516;-70
2021/11/23 01:30:28;;;;;;;71.43;38.83;;;;;;;7.64;74.13;94730.31;5131352;27;20527;-70
2021/11/23 01:32:53;;;;;;;89.15;47.17;;;;;;;7.63;73.83;94741.56;5131268;27;20034;-68
2021/11/23 01:35:20;;;;;;;125.68;62.20;;;;;;;7.50;73.87;94728.72;5130064;27;20462;-68
2021/11/23 01:37:46;;;;;;;109.70;55.72;;;;;;;7.52;73.79;94730.25;5129998;28;20024;-68
2021/11/23 01:40:12;;;;;;;111.97;55.72;;;;;;;7.35;74.43;94715.97;5132768;27;20075;-70
2021/11/23 01:42:37;;;;;;;106.20;54.05;;;;;;;7.41;74.01;94725.03;5133701;27;20031;-68
2021/11/23 01:45:03;;;;;;;106.35;53.78;;;;;;;7.54;73.82;94749.03;5116729;27;20038;-70
2021/11/23 01:47:29;;;;;;;110.88;55.38;;;;;;;7.47;74.56;94745.28;5116614;27;20459;-68
2021/11/23 01:49:54;;;;;;;99.68;52.70;;;;;;;7.45;74.40;94743.72;5116497;27;20032;-68
2021/11/23 01:52:20;;;;;;;106.47;55.30;;;;;;;7.41;74.64;94732.78;5134799;27;20035;-68
2021/11/23 01:54:46;;;;;;;101.00;51.38;;;;;;;7.44;74.48;94737.75;5133542;27;20030;-68
2021/11/23 01:57:11;;;;;;;93.80;48.28;;;;;;;7.41;74.24;94743.13;5133547;27;20027;-68
2021/11/23 01:59:37;;;;;;;116.55;57.67;;;;;;;7.45;74.05;94749.72;5116497;27;20027;-70
2021/11/23 02:02:02;;;;;;;131.88;63.33;;;;;;;7.33;74.77;94755.75;5134556;27;20503;-70
2021/11/23 02:04:28;;;;;;;123.70;58.00;;;;;;;7.27;74.83;94743.25;5116132;27;20051;-69
2021/11/23 02:06:53;;;;;;;107.55;53.67;;;;;;;7.31;74.25;94752.47;5134471;27;20493;-70
2021/11/23 02:09:19;;;;;;;113.18;55.92;;;;;;;7.33;74.35;94750.59;5133166;27;20127;-69
2021/11/23 02:11:44;;;;;;;112.82;55.85;;;;;;;7.35;74.38;94744.38;5134416;27;20030;-68
2021/11/23 02:14:10;;;;;;;110.53;56.60;;;;;;;7.34;74.25;94747.88;5098929;27;20031;-68
2021/11/23 02:16:35;;;;;;;106.95;56.75;;;;;;;7.32;74.61;94743.75;5134376;27;20027;-68
2021/11/23 02:19:01;;;;;;;114.40;57.22;;;;;;;7.14;75.39;94738.97;5098834;27;20499;-68
2021/11/23 02:21:26;;;;;;;104.25;52.22;;;;;;;7.23;74.86;94744.41;5115737;27;20515;-68
2021/11/23 02:23:52;;;;;;;102.72;51.90;;;;;;;7.23;74.93;94741.84;5134109;27;20038;-69
2021/11/23 02:26:17;;;;;;;113.55;54.85;;;;;;;7.20;74.91;94731.72;5115926;27;20015;-69
2021/11/23 02:28:43;;;;;;;100.18;51.78;;;;;;;7.26;74.83;94750.19;5115755;27;20038;-70
2021/11/23 02:31:08;;;;;;;84.68;44.47;;;;;;;7.26;74.72;94736.44;5134103;27;20512;-70
2021/11/23 02:33:34;;;;;;;135.02;64.13;;;;;;;7.30;74.94;94735.28;5132779;27;20030;-70
2021/11/23 02:36:01;;;;;;;128.65;62.17;;;;;;;7.18;75.51;94721.47;5098525;27;20035;-70
2021/11/23 02:38:27;;;;;;;108.57;55.20;;;;;;;7.24;75.25;94738.31;5132576;27;20120;-69
2021/11/23 02:40:52;;;;;;;122.60;60.75;;;;;;;7.24;75.12;94738.31;5132461;27;20152;-70
2021/11/23 02:43:18;;;;;;;146.70;70.28;;;;;;;7.18;75.46;94742.16;5132617;27;20027;-70
2021/11/23 02:45:43;;;;;;;144.75;68.45;;;;;;;7.16;75.53;94736.28;5134147;27;20035;-70
2021/11/23 02:48:11;;;;;;;139.10;65.78;;;;;;;7.08;75.40;94726.50;5115384;27;20114;-69
2021/11/23 02:50:37;;;;;;;110.00;55.25;;;;;;;7.18;75.36;94742.16;5131877;27;20028;-69
2021/11/23 02:53:03;;;;;;;142.50;67.32;;;;;;;7.18;75.09;94737.00;5133471;27;20023;-69
2021/11/23 02:55:31;;;;;;;154.43;74.80;;;;;;;7.06;75.94;94733.50;5115269;27;20138;-69
2021/11/23 02:57:57;;;;;;;139.85;66.88;;;;;;;7.07;76.06;94745.50;5115713;27;20023;-70
2021/11/23 03:00:24;;;;;;;142.93;70.95;;;;;;;7.07;75.86;94752.41;5132119;27;20042;-70
2021/11/23 03:02:50;;;;;;;151.32;72.80;;;;;;;6.93;75.80;94728.38;5114959;27;20026;-70
2021/11/23 03:05:16;;;;;;;139.82;72.78;;;;;;;7.05;76.05;94749.97;5131844;27;20091;-70
2021/11/23 03:07:42;;;;;;;126.85;61.38;;;;;;;7.05;76.33;94746.53;5114873;27;20030;-70
2021/11/23 03:10:08;;;;;;;138.15;65.70;;;;;;;7.06;75.82;94738.69;5131997;27;20031;-70
2021/11/23 03:12:34;;;;;;;153.80;75.32;;;;;;;7.10;75.72;94747.88;5114771;27;20023;-68
2021/11/23 03:14:59;;;;;;;155.18;76.47;;;;;;;6.98;77.20;94750.47;5131738;27;20046;-69
2021/11/23 03:17:25;;;;;;;131.20;64.70;;;;;;;7.02;76.95;94747.59;5131872;27;20023;-69
2021/11/23 03:19:51;;;;;;;144.88;66.70;;;;;;;6.99;76.50;94741.78;5131844;27;20043;-69
2021/11/23 03:22:16;;;;;;;120.40;59.00;;;;;;;7.10;76.33;94755.63;5114646;27;20031;-69
2021/11/23 03:24:42;;;;;;;180.13;87.88;;;;;;;7.12;76.40;94755.50;5131776;27;20038;-69
2021/11/23 03:27:08;;;;;;;156.48;75.40;;;;;;;7.10;76.23;94754.78;5132936;27;20027;-70
2021/11/23 03:29:34;;;;;;;151.73;73.63;;;;;;;7.08;76.16;94751.50;5114316;27;20057;-70
2021/11/23 03:32:00;;;;;;;157.05;79.13;;;;;;;7.13;76.18;94762.31;5131589;27;20027;-71
2021/11/23 03:34:26;;;;;;;151.27;76.45;;;;;;;7.14;76.17;94769.97;5131592;27;20039;-70
2021/11/23 03:36:51;;;;;;;165.88;80.18;;;;;;;7.15;76.33;94760.47;5131481;27;20413;-71
2021/11/23 03:39:17;;;;;;;176.23;91.53;;;;;;;7.10;77.24;94760.81;5131450;27;20110;-70
2021/11/23 03:41:42;;;;;;;162.05;81.80;;;;;;;7.10;77.20;94765.97;5132599;27;20034;-70
2021/11/23 03:44:08;;;;;;;155.98;75.43;;;;;;;7.11;76.93;94767.59;5131343;27;20031;-70
2021/11/23 03:46:33;;;;;;;184.93;93.20;;;;;;;7.10;76.59;94770.28;5132541;27;20043;-70
2021/11/23 03:48:59;;;;;;;193.30;100.95;;;;;;;7.01;76.97;94764.00;5131188;27;20034;-70
2021/11/23 03:51:24;;;;;;;166.70;87.03;;;;;;;7.03;77.12;94775.06;5114226;27;20423;-70
2021/11/23 03:53:50;;;;;;;177.60;95.13;;;;;;;7.02;76.95;94772.56;5132382;27;20560;-70
2021/11/23 03:56:16;;;;;;;175.65;91.65;;;;;;;6.99;76.77;94760.69;5131214;27;20034;-71
2021/11/23 03:58:42;;;;;;;160.88;84.20;;;;;;;7.10;76.49;94775.44;5114382;27;20023;-69
2021/11/23 04:01:08;;;;;;;172.27;91.78;;;;;;;7.07;76.64;94773.91;5130964;27;20038;-69
2021/11/23 04:03:34;;;;;;;172.80;92.55;;;;;;;7.12;76.32;94779.56;5096218;27;20023;-70
2021/11/23 04:05:59;;;;;;;187.82;98.95;;;;;;;7.08;76.84;94772.16;5113959;27;20253;-70
2021/11/23 04:08:25;;;;;;;188.43;99.38;;;;;;;7.12;76.78;94778.75;5130867;27;20381;-69
2021/11/23 04:10:50;;;;;;;167.68;94.32;;;;;;;7.06;76.85;94780.00;5130786;27;20027;-70
2021/11/23 04:13:18;;;;;;;182.13;96.60;;;;;;;7.11;76.96;94787.44;5130941;27;20023;-69
2021/11/23 04:15:44;;;;;;;169.38;89.75;;;;;;;7.12;76.95;94792.50;5130968;27;20027;-69
2021/11/23 04:18:09;;;;;;;187.25;98.43;;;;;;;7.14;76.80;94790.63;5130824;27;20047;-71
2021/11/23 04:20:35;;;;;;;185.82;97.68;;;;;;;7.15;76.82;94787.09;5132377;27;20095;-69
2021/11/23 04:23:00;;;;;;;157.25;79.60;;;;;;;7.15;76.67;94787.09;5130609;27;20492;-69
2021/11/23 04:25:26;;;;;;;158.10;83.70;;;;;;;7.18;76.53;94787.84;5132371;27;20393;-69
2021/11/23 04:27:52;;;;;;;164.35;85.13;;;;;;;7.13;76.65;94776.09;5130698;27;20435;-69
2021/11/23 04:30:17;;;;;;;138.07;73.28;;;;;;;7.14;76.83;94782.88;5113566;27;20053;-69
2021/11/23 04:32:44;;;;;;;141.85;76.28;;;;;;;7.21;76.77;94787.63;5113510;28;20047;-70
2021/11/23 04:35:10;;;;;;;137.20;70.97;;;;;;;7.21;76.67;94787.63;5113517;28;20034;-69
2021/11/23 04:37:35;;;;;;;146.60;73.47;;;;;;;7.20;76.75;94785.97;5113414;28;20568;-69
2021/11/23 04:40:04;;;;;;;136.20;71.32;;;;;;;7.22;76.67;94794.47;5130577;28;20026;-69
2021/11/23 04:42:30;;;;;;;140.90;72.18;;;;;;;7.04;76.71;94758.63;5130410;28;20074;-69
2021/11/23 04:44:55;;;;;;;147.35;77.82;;;;;;;7.22;76.92;94792.69;5131910;27;20024;-70
2021/11/23 04:47:21;;;;;;;143.52;74.40;;;;;;;7.25;76.65;94789.06;5113356;28;20042;-69
2021/11/23 04:49:46;;;;;;;145.07;73.25;;;;;;;7.26;76.66;94788.13;5113361;28;20016;-69
2021/11/23 04:52:11;;;;;;;128.35;67.40;;;;;;;7.28;76.67;94791.44;5131765;27;20031;-69
2021/11/23 04:54:37;;;;;;;133.60;69.82;;;;;;;7.28;77.00;94792.25;5130557;28;20050;-69
2021/11/23 04:57:03;;;;;;;106.22;54.53;;;;;;;7.26;76.87;94781.19;5130474;28;20039;-69
2021/11/23 04:59:28;;;;;;;89.00;47.45;;;;;;;7.29;77.00;94787.91;5130557;28;20041;-69
2021/11/23 05:01:54;;;;;;;86.93;46.10;;;;;;;7.32;77.26;94795.44;5130260;28;20031;-69
2021/11/23 05:04:19;;;;;;;99.15;50.25;;;;;;;7.28;77.21;94796.59;5131714;27;20031;-69
2021/11/23 05:06:45;;;;;;;91.95;47.65;;;;;;;7.32;77.51;94796.25;5131585;27;20027;-69
2021/11/23 05:09:10;;;;;;;83.90;40.20;;;;;;;7.30;77.65;94793.00;5130261;28;20019;-69
2021/11/23 05:11:39;;;;;;;88.18;42.55;;;;;;;7.36;77.94;94807.22;5131517;27;20027;-69
2021/11/23 05:14:04;;;;;;;80.28;39.97;;;;;;;7.42;78.68;94806.78;5131326;27;20019;-69
2021/11/23 05:16:30;;;;;;;81.25;41.53;;;;;;;7.44;79.01;94799.78;5117219;27;20046;-69
2021/11/23 05:18:55;;;;;;;84.65;41.03;;;;;;;7.50;78.74;94809.66;5134043;27;20034;-69
2021/11/23 05:21:20;;;;;;;90.28;41.83;;;;;;;7.50;78.89;94793.34;5135411;27;20035;-69
2021/11/23 05:23:46;;;;;;;80.63;40.10;;;;;;;7.60;78.89;94805.50;5135339;27;20031;-69
2021/11/23 05:26:11;;;;;;;76.55;39.78;;;;;;;7.60;78.75;94804.66;5134049;27;20042;-69
2021/11/23 05:28:37;;;;;;;128.50;63.58;;;;;;;7.66;78.67;94809.41;5116943;27;20019;-69
2021/11/23 05:31:02;;;;;;;210.98;90.22;;;;;;;7.69;78.07;94816.09;5135284;27;20354;-69
2021/11/23 05:33:28;;;;;;;258.63;114.55;;;;;;;7.59;78.43;94811.59;5116623;27;20027;-69
2021/11/23 05:35:53;;;;;;;268.45;122.70;;;;;;;7.37;78.41;94796.78;5133730;27;20035;-69
2021/11/23 05:38:19;;;;;;;235.75;110.90;;;;;;;7.45;78.42;94813.50;5116808;27;20035;-69
2021/11/23 05:40:44;;;;;;;225.70;107.50;;;;;;;7.48;78.10;94821.06;5133652;27;20415;-70
2021/11/23 05:43:11;;;;;;;184.68;91.18;;;;;;;7.44;78.16;94815.28;5133686;27;20039;-69
2021/11/23 05:45:37;;;;;;;218.73;103.85;;;;;;;7.52;78.16;94828.50;5116689;27;20027;-69
2021/11/23 05:48:02;;;;;;;218.40;104.57;;;;;;;7.53;77.79;94829.31;5133626;27;20104;-70
2021/11/23 05:50:28;;;;;;;190.52;92.32;;;;;;;7.53;77.68;94832.72;5133759;27;20114;-70
2021/11/23 05:52:53;;;;;;;190.70;92.82;;;;;;;7.50;77.88;94824.34;5134770;27;20031;-69
2021/11/23 05:55:19;;;;;;;194.90;96.68;;;;;;;7.55;77.72;94846.38;5135121;27;20088;-69
2021/11/23 05:57:44;;;;;;;189.95;95.63;;;;;;;7.55;77.95;94848.09;5116378;27;20027;-69
2021/11/23 06:00:10;;;;;;;211.85;106.65;;;;;;;7.56;77.81;94849.78;5133491;27;20023;-69
2021/11/23 06:02:35;;;;;;;230.68;114.68;;;;;;;7.49;78.51;94854.53;5133306;27;20050;-69
2021/11/23 06:05:02;;;;;;;206.60;106.22;;;;;;;7.51;78.29;94854.44;5133382;27;20030;-69
2021/11/23 06:07:28;;;;;;;213.00;105.35;;;;;;;7.49;78.61;94864.03;5133309;27;20114;-70
2021/11/23 06:09:53;;;;;;;195.07;92.38;;;;;;;7.51;78.46;94863.00;5134312;27;20099;-70
2021/11/23 06:12:19;;;;;;;188.27;89.43;;;;;;;7.50;78.38;94863.94;5133264;27;20440;-69
2021/11/23 06:14:44;;;;;;;189.20;95.80;;;;;;;7.51;78.37;94873.34;5116060;27;20026;-69
2021/11/23 06:17:11;;;;;;;184.68;90.93;;;;;;;7.52;78.49;94879.34;5133162;27;20167;-69
2021/11/23 06:19:37;;;;;;;180.05;88.25;;;;;;;7.50;78.28;94873.47;5133074;27;20500;-69
2021/11/23 06:22:03;;;;;;;176.75;84.50;;;;;;;7.54;78.36;94888.63;5115871;27;20043;-70
2021/11/23 06:24:28;;;;;;;123.78;60.58;;;;;;;7.57;78.75;94880.66;5133017;27;20536;-69
2021/11/23 06:26:54;;;;;;;115.15;53.08;;;;;;;7.61;80.24;94884.72;5132210;27;20032;-70
2021/11/23 06:29:19;;;;;;;104.00;47.70;;;;;;;7.60;81.66;94884.81;5132689;27;20058;-69
2021/11/23 06:31:45;;;;;;;105.25;52.20;;;;;;;7.65;81.21;94877.56;5132846;27;20027;-69
2021/11/23 06:34:10;;;;;;;83.20;41.95;;;;;;;7.75;80.89;94885.50;5132750;27;20031;-69
2021/11/23 06:36:36;;;;;;;82.95;40.10;;;;;;;7.82;80.38;94884.13;5134006;27;20034;-69
2021/11/23 06:39:03;;;;;;;71.35;35.70;;;;;;;7.91;80.08;94885.22;5115558;27;20035;-69
2021/11/23 06:41:28;;;;;;;71.13;33.55;;;;;;;7.95;79.63;94890.09;5115399;27;20038;-69
2021/11/23 06:43:55;;;;;;;62.20;31.15;;;;;;;7.92;79.40;94879.97;5132536;27;20031;-69
2021/11/23 06:46:20;;;;;;;72.72;37.63;;;;;;;7.96;79.27;94883.97;5098629;27;20617;-69
2021/11/23 06:48:46;;;;;;;74.85;36.95;;;;;;;8.03;79.69;94897.31;5132508;27;20031;-69
2021/11/23 06:51:11;;;;;;;88.88;46.05;;;;;;;8.00;79.57;94894.94;5132395;27;20038;-69
2021/11/23 06:53:36;;;;;;;77.70;40.70;;;;;;;8.03;79.05;94895.53;5133584;27;20015;-69
2021/11/23 06:56:02;;;;;;;81.38;40.75;;;;;;;8.13;79.22;94911.22;5115179;27;20111;-69
2021/11/23 06:58:27;;;;;;;71.35;38.13;;;;;;;8.10;78.91;94900.28;5133467;27;20023;-70
2021/11/23 07:00:53;;;;;;;93.60;46.13;;;;;;;8.16;79.59;94905.84;5114952;27;20042;-69
2021/11/23 07:03:18;;;;;;;81.47;41.83;;;;;;;8.23;79.48;94911.41;5133507;27;20027;-69
2021/11/23 07:05:44;;;;;;;106.20;50.72;;;;;;;8.17;79.46;94909.25;5133770;27;20027;-69
2021/11/23 07:08:09;;;;;;;92.88;47.33;;;;;;;8.27;79.81;94920.56;5133368;27;20031;-69
2021/11/23 07:10:35;;;;;;;93.50;48.47;;;;;;;8.30;79.19;94928.13;5133704;27;20023;-69
2021/11/23 07:13:00;;;;;;;98.22;50.60;;;;;;;8.20;79.59;94922.78;5132037;27;20065;-69
2021/11/23 07:15:26;;;;;;;99.97;52.00;;;;;;;8.28;79.32;94936.00;5131846;27;20480;-69
2021/11/23 07:17:51;;;;;;;87.10;46.38;;;;;;;8.35;78.77;94936.38;5114770;27;20039;-69
2021/11/23 07:20:17;;;;;;;101.60;50.08;;;;;;;8.32;79.35;94933.19;5133412;27;20023;-70
2021/11/23 07:22:42;;;;;;;89.65;47.78;;;;;;;8.33;79.03;94937.44;5131753;27;20428;-69
2021/11/23 07:25:08;;;;;;;87.03;44.85;;;;;;;8.37;78.89;94944.06;5097694;27;20038;-69
2021/11/23 07:27:34;;;;;;;78.55;42.35;;;;;;;8.39;78.50;94950.81;5132944;27;20027;-69
2021/11/23 07:29:59;;;;;;;66.28;38.05;;;;;;;8.34;78.62;94945.09;5131543;27;20484;-69
2021/11/23 07:32:25;;;;;;;53.35;29.13;;;;;;;8.44;78.32;94955.63;5131684;27;20032;-69
2021/11/23 07:34:50;;;;;;;48.72;28.88;;;;;;;8.44;78.31;94963.41;5114429;27;20398;-69
2021/11/23 07:37:15;;;;;;;37.75;24.25;;;;;;;8.43;78.24;94970.34;5131952;27;20035;-69
2021/11/23 07:39:42;;;;;;;38.45;26.42;;;;;;;8.43;78.03;94954.81;5132737;27;20035;-69
2021/11/23 07:42:08;;;;;;;44.30;25.88;;;;;;;8.46;77.80;94967.53;5131364;27;20027;-70
2021/11/23 07:44:33;;;;;;;38.63;26.10;;;;;;;8.45;77.95;94968.47;5132702;27;20461;-69
2021/11/23 07:46:59;;;;;;;39.60;25.25;;;;;;;8.42;77.69;94957.53;5132505;27;20027;-70
2021/11/23 07:49:24;;;;;;;33.90;22.70;;;;;;;8.40;77.80;94973.16;5131215;27;20031;-69
2021/11/23 07:51:50;;;;;;;23.67;17.02;;;;;;;8.43;77.24;94983.28;5114169;27;20023;-69
2021/11/23 07:54:16;;;;;;;26.98;17.65;;;;;;;8.41;77.43;94977.41;5097086;27;20035;-69
2021/11/23 07:56:42;;;;;;;20.48;15.27;;;;;;;8.39;77.00;94978.47;5131240;27;20480;-69
2021/11/23 07:59:08;;;;;;;20.33;15.40;;;;;;;8.35;76.89;94982.97;5096987;27;20054;-70
2021/11/23 08:01:33;;;;;;;24.23;16.38;;;;;;;8.34;76.83;94985.69;5131009;27;20511;-70
2021/11/23 08:03:59;;;;;;;41.40;24.67;;;;;;;8.41;76.62;94997.28;5113845;27;20059;-69
2021/11/23 08:06:24;;;;;;;29.58;19.40;;;;;;;8.23;76.94;94995.03;5132298;27;20458;-69
2021/11/23 08:08:50;;;;;;;27.55;18.05;;;;;;;8.27;76.98;95003.41;5113728;27;20039;-69
2021/11/23 08:11:15;;;;;;;33.70;22.90;;;;;;;8.26;76.86;95000.00;5112150;27;20030;-69
2021/11/23 08:13:41;;;;;;;24.25;17.08;;;;;;;8.29;76.97;95004.94;5095391;28;20027;-69
2021/11/23 08:16:06;;;;;;;16.95;13.60;;;;;;;7.97;76.75;94957.25;5109916;27;20031;-69
2021/11/23 08:18:32;;;;;;;20.42;14.93;;;;;;;8.26;76.82;95012.94;5113716;27;20394;-69
2021/11/23 08:20:58;;;;;;;78.50;44.53;;;;;;;8.29;76.66;95010.13;5117774;27;20107;-69
2021/11/23 08:23:23;;;;;;;116.55;55.45;;;;;;;8.25;76.97;95010.47;5127410;27;20492;-69
2021/11/23 08:25:49;;;;;;;71.93;38.50;;;;;;;8.29;76.73;95014.47;5121521;27;20031;-70
2021/11/23 08:28:14;;;;;;;69.30;37.97;;;;;;;8.28;77.02;95018.84;5130740;27;20015;-69
2021/11/23 08:30:40;;;;;;;40.75;24.20;;;;;;;8.26;76.96;95022.47;5123779;27;20538;-69
2021/11/23 08:33:06;;;;;;;196.65;76.30;;;;;;;8.22;76.93;95019.28;5092135;28;20102;-69
2021/11/23 08:35:31;;;;;;;62.95;33.50;;;;;;;8.16;76.63;95018.84;5111693;28;20111;-69
2021/11/23 08:37:57;;;;;;;54.85;29.77;;;;;;;8.17;76.35;95015.34;5111278;28;20477;-69
2021/11/23 08:40:22;;;;;;;20.48;15.85;;;;;;;8.17;76.21;95023.13;5093149;28;20127;-70
2021/11/23 08:42:48;;;;;;;65.03;32.35;;;;;;;8.09;76.18;95009.88;5111165;28;20024;-69
2021/11/23 08:45:14;;;;;;;85.47;43.00;;;;;;;8.11;75.84;95023.53;5110082;28;20036;-70
2021/11/23 08:47:39;;;;;;;55.80;34.63;;;;;;;8.05;75.94;95025.63;5076077;28;20034;-70
2021/11/23 08:50:05;;;;;;;50.72;27.00;;;;;;;8.06;75.72;95029.03;5113028;28;20043;-69
2021/11/23 08:52:31;;;;;;;25.05;16.67;;;;;;;7.97;75.63;95035.69;5114256;28;20034;-71
2021/11/23 08:54:56;;;;;;;117.80;47.50;;;;;;;7.97;75.78;95035.69;5114219;28;20032;-69
2021/11/23 08:57:22;;;;;;;34.38;21.67;;;;;;;7.96;75.76;95036.59;5114277;28;20501;-69
2021/11/23 08:59:48;;;;;;;47.85;26.35;;;;;;;7.90;75.56;95031.03;5113997;28;20035;-69
2021/11/23 09:02:16;;;;;;;68.45;33.35;;;;;;;7.91;76.03;95030.94;5097129;28;20028;-70
2021/11/23 09:04:42;;;;;;;53.42;28.42;;;;;;;7.86;75.49;95033.00;5115324;28;20493;-69
2021/11/23 09:07:09;;;;;;;51.08;28.48;;;;;;;7.88;76.14;95036.28;5097012;28;20042;-69
2021/11/23 09:09:37;;;;;;;42.10;25.00;;;;;;;7.82;76.26;95031.53;5096948;28;20032;-70
2021/11/23 09:12:03;;;;;;;98.20;43.72;;;;;;;7.82;76.60;95028.97;5113770;28;20111;-70
2021/11/23 09:14:33;;;;;;;54.78;28.58;;;;;;;7.87;76.56;95028.66;5096757;28;20031;-69
2021/11/23 09:16:59;;;;;;;31.30;20.93;;;;;;;7.77;76.68;95025.84;5096874;28;20024;-70
2021/11/23 09:19:25;;;;;;;31.13;22.80;;;;;;;7.78;76.94;95037.88;5113709;28;20030;-70
2021/11/23 09:21:51;;;;;;;49.63;27.58;;;;;;;7.79;76.85;95032.56;5096448;28;20084;-69
2021/11/23 09:24:16;;;;;;;33.75;21.63;;;;;;;7.80;76.87;95036.00;5114904;28;20031;-69
2021/11/23 09:26:44;;;;;;;30.48;21.55;;;;;;;7.79;76.67;95035.16;5096507;28;20493;-69
2021/11/23 09:29:09;;;;;;;30.42;21.92;;;;;;;7.75;76.91;95033.72;5096614;28;20044;-69
2021/11/23 09:31:35;;;;;;;41.45;25.35;;;;;;;7.79;77.05;95044.69;5113573;28;20039;-69
2021/11/23 09:34:00;;;;;;;31.58;21.20;;;;;;;7.70;76.94;95032.41;5114677;28;20036;-69
2021/11/23 09:36:25;;;;;;;36.78;23.83;;;;;;;7.66;76.96;95030.94;5079463;28;20039;-69
2021/11/23 09:38:51;;;;;;;38.10;26.92;;;;;;;7.72;77.19;95035.72;5113239;28;20530;-69
2021/11/23 09:41:16;;;;;;;41.75;29.00;;;;;;;7.71;77.28;95034.03;5096513;28;20478;-69
2021/11/23 09:43:42;;;;;;;39.05;28.08;;;;;;;7.71;76.95;95029.69;5113265;28;20027;-69
2021/11/23 09:46:08;;;;;;;34.78;24.60;;;;;;;7.77;77.22;95039.63;5113166;28;20488;-69
2021/11/23 09:48:35;;;;;;;30.27;21.85;;;;;;;7.80;76.88;95030.81;5096106;28;20031;-69
2021/11/23 09:51:00;;;;;;;43.97;28.77;;;;;;;7.73;76.95;95022.66;5096048;28;20040;-69
2021/11/23 09:53:26;;;;;;;39.53;27.23;;;;;;;7.77;77.17;95024.13;5095973;28;20024;-69
2021/11/23 09:55:53;;;;;;;86.15;46.05;;;;;;;7.82;76.91;95034.13;5095787;28;20062;-69
2021/11/23 09:58:19;;;;;;;52.58;34.13;;;;;;;7.77;76.94;95031.88;5112998;28;20031;-69
2021/11/23 10:00:47;;;;;;;60.05;33.80;;;;;;;7.80;76.62;95028.22;5111849;28;20069;-70
2021/11/23 10:03:18;;;;;;;36.67;25.60;;;;;;;7.86;76.20;95032.19;5079467;28;20661;-70
2021/11/23 10:05:43;;;;;;;32.80;22.97;;;;;;;7.82;76.41;95028.97;5114463;28;20110;-69
2021/11/23 10:08:15;;;;;;;38.78;24.25;;;;;;;7.77;76.25;95023.28;5112797;28;20124;-70
2021/11/23 10:10:44;;;;;;;92.53;41.42;;;;;;;7.83;76.12;95028.88;5096013;28;20035;-69
2021/11/23 10:13:09;;;;;;;39.83;26.17;;;;;;;7.86;76.09;95033.00;5112719;28;20024;-69
2021/11/23 10:15:37;;;;;;;37.95;26.20;;;;;;;7.89;76.09;95019.84;5095778;28;20055;-69
2021/11/23 10:18:16;;;;;;;70.63;37.42;;;;;;;7.92;76.18;95030.00;5095848;28;20032;-70
2021/11/23 10:20:49;;;;;;;68.55;34.40;;;;;;;7.96;75.97;95025.44;5112482;28;20039;-70
2021/11/23 10:23:32;;;;;;;42.50;27.70;;;;;;;7.97;75.66;95014.97;5095420;28;20028;-70
2021/11/23 10:26:16;;;;;;;50.75;32.45;;;;;;;8.05;75.53;95028.22;5113607;28;20027;-69
2021/11/23 10:28:54;;;;;;;36.88;25.85;;;;;;;8.09;75.70;95022.81;5112720;28;20107;-69
2021/11/23 10:31:20;;;;;;;39.47;27.88;;;;;;;8.01;75.22;95021.59;5080091;28;20116;-70
2021/11/23 10:33:45;;;;;;;42.35;29.58;;;;;;;8.05;75.53;95023.03;5095239;28;20114;-70
2021/11/23 10:36:19;;;;;;;38.85;25.80;;;;;;;8.10;75.35;95027.06;5078314;28;20030;-70
2021/11/23 10:38:44;;;;;;;46.28;29.40;;;;;;;8.02;74.85;95012.91;5113414;28;20036;-70
2021/11/23 10:41:12;;;;;;;44.25;28.65;;;;;;;8.01;75.07;95025.94;5113204;28;20039;-69
2021/11/23 10:43:39;;;;;;;88.30;46.08;;;;;;;8.09;74.93;95022.81;5095315;28;20534;-70
2021/11/23 10:46:12;;;;;;;51.67;32.90;;;;;;;7.86;74.69;94999.38;5111962;28;20027;-69
2021/11/23 10:48:37;;;;;;;45.03;29.23;;;;;;;8.03;74.93;95014.56;5095157;28;20065;-70
2021/11/23 10:51:04;;;;;;;66.60;38.10;;;;;;;8.10;75.01;95025.28;5111844;28;20088;-69
2021/11/23 10:53:30;;;;;;;46.35;30.92;;;;;;;8.13;74.71;95032.00;5111789;28;20455;-70
2021/11/23 10:56:03;;;;;;;51.83;34.15;;;;;;;8.15;74.92;95030.97;5094542;28;20016;-69
2021/11/23 10:58:28;;;;;;;129.63;67.25;;;;;;;8.18;74.92;95024.75;5111643;28;20023;-69
2021/11/23 11:00:54;;;;;;;64.00;38.92;;;;;;;8.24;74.87;95032.09;5111609;28;20026;-70
2021/11/23 11:03:19;;;;;;;66.45;39.80;;;;;;;8.21;74.59;95022.78;5111644;28;20028;-69
2021/11/23 11:05:45;;;;;;;61.03;36.47;;;;;;;8.29;74.64;95030.00;5094745;28;20039;-69
2021/11/23 11:08:11;;;;;;;42.58;27.55;;;;;;;8.27;74.67;95026.69;5112797;28;20031;-70
2021/11/23 11:10:37;;;;;;;49.80;33.17;;;;;;;8.27;74.26;95027.56;5094829;28;20031;-69
2021/11/23 11:13:04;;;;;;;38.08;25.38;;;;;;;8.27;74.54;95034.47;5094343;28;20027;-69
2021/11/23 11:15:39;;;;;;;39.28;25.63;;;;;;;8.27;74.37;95031.88;5094686;28;20080;-69